Time;durP1;ratioP1;P1;durP2;ratioP2;P2;SDS_P1;SDS_P2;PMS_P1;PMS_P2;Temp;Humidity;BMP_temperature;BMP_pressure;BME280_temperature;BME280_humidity;BME280_pressure;Samples;Min_cycle;Max_cycle;Signal;HPM_P1;HPM_P2
2021/09/09 00:00:20;;;;;;;19.10;13.98;;;18.60;94.70;;;;;;5032681;28;20087;-65
2021/09/09 00:02:46;;;;;;;18.80;14.85;;;18.60;94.70;;;;;;5035336;28;20040;-65
2021/09/09 00:05:11;;;;;;;18.27;13.50;;;18.60;94.80;;;;;;5031821;28;20120;-64
2021/09/09 00:07:37;;;;;;;17.25;13.18;;;18.60;94.80;;;;;;5028655;28;20115;-64
2021/09/09 00:10:04;;;;;;;17.80;13.77;;;18.50;94.80;;;;;;5031167;28;20537;-65
2021/09/09 00:12:30;;;;;;;17.10;13.73;;;18.60;95.00;;;;;;5032348;28;20577;-64
2021/09/09 00:14:55;;;;;;;18.33;13.68;;;18.50;95.00;;;;;;5046579;28;20033;-64
2021/09/09 00:17:21;;;;;;;18.70;13.60;;;18.50;95.00;;;;;;5021584;28;20038;-64
2021/09/09 00:19:46;;;;;;;19.15;13.43;;;18.50;95.10;;;;;;5012293;28;20076;-65
2021/09/09 00:22:12;;;;;;;14.65;12.35;;;18.40;95.10;;;;;;5034771;28;20025;-65
2021/09/09 00:24:37;;;;;;;22.45;14.13;;;18.40;95.10;;;;;;5042777;28;20030;-65
2021/09/09 00:27:03;;;;;;;17.13;13.98;;;18.40;95.10;;;;;;5032435;28;20045;-65
2021/09/09 00:29:28;;;;;;;18.67;14.23;;;18.30;95.20;;;;;;5030736;28;20064;-65
2021/09/09 00:31:54;;;;;;;19.30;13.80;;;18.30;95.20;;;;;;5030672;28;20033;-65
2021/09/09 00:34:19;;;;;;;17.35;13.77;;;18.30;95.20;;;;;;5030904;28;20017;-65
2021/09/09 00:36:45;;;;;;;18.75;13.40;;;18.30;95.30;;;;;;5020329;28;20018;-65
2021/09/09 00:39:10;;;;;;;17.60;13.52;;;18.30;95.60;;;;;;5030591;28;20034;-65
2021/09/09 00:41:36;;;;;;;17.67;13.27;;;18.30;95.40;;;;;;5030337;28;20052;-65
2021/09/09 00:44:02;;;;;;;20.08;12.32;;;18.30;95.40;;;;;;5031428;28;20029;-64
2021/09/09 00:46:29;;;;;;;18.45;13.85;;;18.20;95.30;;;;;;5034740;28;20037;-64
2021/09/09 00:48:54;;;;;;;20.30;12.85;;;18.20;95.50;;;;;;5051515;28;20111;-65
2021/09/09 00:51:20;;;;;;;17.30;13.15;;;18.20;95.50;;;;;;5037477;28;20164;-65
2021/09/09 00:53:45;;;;;;;17.33;12.88;;;18.20;95.40;;;;;;5031340;28;20397;-64
2021/09/09 00:56:12;;;;;;;18.65;13.10;;;18.20;95.50;;;;;;5032250;28;20051;-64
2021/09/09 00:58:41;;;;;;;17.45;13.52;;;18.20;95.40;;;;;;5049936;28;20029;-64
2021/09/09 01:01:06;;;;;;;18.25;14.07;;;18.10;95.50;;;;;;5014302;28;20033;-64
2021/09/09 01:03:32;;;;;;;15.88;12.48;;;18.10;95.50;;;;;;5030406;28;20474;-64
2021/09/09 01:05:58;;;;;;;17.60;13.45;;;18.10;95.60;;;;;;5029909;28;20030;-64
2021/09/09 01:08:23;;;;;;;17.92;13.18;;;18.10;95.70;;;;;;5029135;28;20508;-64
2021/09/09 01:10:49;;;;;;;17.25;13.13;;;18.10;95.70;;;;;;5030514;28;20022;-64
2021/09/09 01:13:14;;;;;;;18.25;12.77;;;18.10;95.70;;;;;;5042597;28;20038;-64
2021/09/09 01:15:44;;;;;;;15.88;12.52;;;18.00;95.80;;;;;;5030139;28;20512;-64
2021/09/09 01:18:14;;;;;;;20.10;14.52;;;18.00;95.80;;;;;;5041512;28;20061;-64
2021/09/09 01:20:40;;;;;;;18.52;12.73;;;18.00;95.80;;;;;;5030790;28;20124;-64
2021/09/09 01:23:07;;;;;;;18.27;13.68;;;18.00;95.90;;;;;;5039460;28;20021;-64
2021/09/09 01:25:33;;;;;;;19.67;14.38;;;17.90;95.90;;;;;;5049829;28;20074;-64
2021/09/09 01:27:59;;;;;;;19.02;13.38;;;17.90;96.00;;;;;;5034826;28;20037;-64
2021/09/09 01:30:24;;;;;;;19.40;13.80;;;17.90;96.00;;;;;;5038563;28;20026;-64
2021/09/09 01:32:50;;;;;;;17.35;12.98;;;17.90;96.10;;;;;;5031161;28;20063;-64
2021/09/09 01:35:15;;;;;;;17.63;13.43;;;17.90;96.10;;;;;;5041178;28;20029;-64
2021/09/09 01:37:41;;;;;;;18.83;12.95;;;17.90;96.10;;;;;;5022029;28;20428;-64
2021/09/09 01:40:07;;;;;;;18.17;13.95;;;17.80;96.10;;;;;;5022417;28;20025;-64
2021/09/09 01:42:33;;;;;;;20.42;14.00;;;17.90;96.20;;;;;;5020618;28;20036;-64
2021/09/09 01:44:58;;;;;;;22.77;14.07;;;17.80;96.20;;;;;;5034443;28;20026;-63
2021/09/09 01:47:24;;;;;;;17.70;12.90;;;17.80;96.20;;;;;;5036710;28;20037;-63
2021/09/09 01:49:50;;;;;;;19.33;13.00;;;17.80;96.20;;;;;;5048209;28;20025;-63
2021/09/09 01:52:16;;;;;;;15.55;12.80;;;17.80;96.30;;;;;;5032779;28;20064;-64
2021/09/09 01:54:41;;;;;;;18.55;13.73;;;17.80;96.30;;;;;;5018897;28;20069;-63
2021/09/09 01:57:07;;;;;;;20.25;14.27;;;17.70;96.30;;;;;;5023579;28;20057;-64
2021/09/09 01:59:32;;;;;;;16.40;12.77;;;17.70;96.20;;;;;;5033817;28;20707;-64
2021/09/09 02:01:58;;;;;;;19.77;13.13;;;17.70;96.20;;;;;;5033167;28;20029;-64
2021/09/09 02:04:26;;;;;;;18.67;13.38;;;17.70;96.30;;;;;;5034798;28;20064;-64
2021/09/09 02:06:52;;;;;;;16.60;12.63;;;17.60;96.30;;;;;;5032706;28;20037;-64
2021/09/09 02:09:17;;;;;;;17.70;13.02;;;17.60;96.40;;;;;;5033862;28;20113;-64
2021/09/09 02:11:43;;;;;;;18.98;13.15;;;17.60;96.30;;;;;;5032780;28;20029;-64
2021/09/09 02:14:08;;;;;;;17.50;13.45;;;17.60;96.30;;;;;;5032720;28;20049;-64
2021/09/09 02:16:34;;;;;;;17.63;13.20;;;17.60;96.30;;;;;;5037072;28;20022;-64
2021/09/09 02:18:59;;;;;;;18.23;13.55;;;17.50;96.30;;;;;;5029697;28;20064;-64
2021/09/09 02:21:25;;;;;;;16.23;12.18;;;17.50;96.30;;;;;;5013831;28;20029;-64
2021/09/09 02:23:50;;;;;;;17.48;12.75;;;17.50;96.30;;;;;;5029595;28;20029;-64
2021/09/09 02:26:16;;;;;;;15.30;12.45;;;17.50;96.40;;;;;;5031721;28;20029;-65
2021/09/09 02:28:41;;;;;;;17.52;13.32;;;17.50;96.30;;;;;;5043823;28;20500;-65
2021/09/09 02:31:07;;;;;;;17.60;13.23;;;17.50;96.30;;;;;;5051217;28;20098;-65
2021/09/09 02:33:32;;;;;;;21.17;14.75;;;17.40;96.30;;;;;;5032201;28;20092;-65
2021/09/09 02:35:58;;;;;;;17.45;13.18;;;17.40;96.30;;;;;;5031277;28;20025;-65
2021/09/09 02:38:23;;;;;;;17.83;13.75;;;17.40;96.40;;;;;;5034931;28;20059;-65
2021/09/09 02:40:49;;;;;;;18.55;12.85;;;17.40;96.40;;;;;;5031211;28;20029;-64
2021/09/09 02:43:14;;;;;;;18.35;13.15;;;17.40;96.40;;;;;;5029951;28;20033;-65
2021/09/09 02:45:40;;;;;;;17.65;13.30;;;17.40;96.30;;;;;;5032587;28;20044;-65
2021/09/09 02:48:05;;;;;;;17.08;13.27;;;17.30;96.30;;;;;;5042128;28;20041;-65
2021/09/09 02:50:31;;;;;;;21.83;13.60;;;17.30;96.30;;;;;;5036364;28;20474;-65
2021/09/09 02:52:58;;;;;;;15.77;12.75;;;17.30;96.40;;;;;;5032359;28;20711;-65
2021/09/09 02:55:23;;;;;;;18.25;12.35;;;17.30;96.40;;;;;;5031974;28;20107;-65
2021/09/09 02:57:49;;;;;;;18.55;12.93;;;17.30;96.40;;;;;;5039583;28;20036;-65
2021/09/09 03:00:15;;;;;;;18.48;12.38;;;17.30;96.40;;;;;;5039027;28;20545;-65
2021/09/09 03:02:40;;;;;;;16.75;13.18;;;17.30;96.40;;;;;;5034803;28;21846;-65
2021/09/09 03:05:08;;;;;;;17.17;12.82;;;17.20;96.50;;;;;;5032734;28;20021;-65
2021/09/09 03:07:33;;;;;;;18.00;12.55;;;17.20;96.50;;;;;;5036829;28;20090;-65
2021/09/09 03:09:59;;;;;;;18.33;12.93;;;17.20;96.50;;;;;;5038661;28;20030;-65
2021/09/09 03:12:24;;;;;;;15.80;12.45;;;17.10;96.50;;;;;;5029464;28;20492;-65
2021/09/09 03:14:50;;;;;;;18.13;13.52;;;17.10;96.60;;;;;;5014922;28;20054;-65
2021/09/09 03:17:15;;;;;;;16.80;14.25;;;17.10;96.60;;;;;;5034775;28;20123;-65
2021/09/09 03:19:41;;;;;;;17.67;12.73;;;17.10;96.60;;;;;;5047607;28;20517;-65
2021/09/09 03:22:06;;;;;;;16.33;12.73;;;17.10;96.60;;;;;;5031757;28;20037;-65
2021/09/09 03:24:32;;;;;;;16.88;12.00;;;17.10;96.60;;;;;;5019838;28;20037;-65
2021/09/09 03:26:58;;;;;;;16.58;13.15;;;17.10;96.70;;;;;;5012721;28;20045;-65
2021/09/09 03:29:23;;;;;;;19.23;14.30;;;17.00;96.60;;;;;;5031430;28;20025;-65
2021/09/09 03:31:49;;;;;;;17.85;12.80;;;17.00;96.60;;;;;;5020559;28;20077;-65
2021/09/09 03:34:14;;;;;;;17.05;12.95;;;17.00;96.60;;;;;;5032110;28;20067;-65
2021/09/09 03:36:40;;;;;;;16.52;12.10;;;17.00;96.60;;;;;;5032841;28;20459;-65
2021/09/09 03:39:05;;;;;;;17.88;12.25;;;17.00;96.70;;;;;;5034027;28;20036;-65
2021/09/09 03:41:31;;;;;;;18.02;13.15;;;17.00;96.70;;;;;;5051725;28;20025;-65
2021/09/09 03:43:57;;;;;;;18.38;13.77;;;17.00;96.70;;;;;;5033484;28;20025;-65
2021/09/09 03:46:22;;;;;;;15.60;12.38;;;16.90;96.70;;;;;;5029880;28;20036;-65
2021/09/09 03:48:47;;;;;;;17.55;13.32;;;16.90;96.70;;;;;;5031467;28;20392;-65
2021/09/09 03:51:13;;;;;;;17.67;13.38;;;16.90;96.70;;;;;;5030821;28;20726;-65
2021/09/09 03:53:39;;;;;;;19.30;12.48;;;16.90;96.70;;;;;;5044953;28;20021;-65
2021/09/09 03:56:05;;;;;;;17.17;12.32;;;16.90;96.70;;;;;;5026814;28;20050;-65
2021/09/09 03:58:30;;;;;;;19.10;13.27;;;16.90;96.80;;;;;;5034983;28;20033;-65
2021/09/09 04:00:56;;;;;;;19.60;13.15;;;16.90;96.80;;;;;;5012175;28;20014;-65
2021/09/09 04:03:21;;;;;;;17.73;12.50;;;16.80;96.80;;;;;;5022353;28;20435;-64
2021/09/09 04:05:47;;;;;;;17.55;12.73;;;16.80;96.80;;;;;;5047125;28;20025;-65
2021/09/09 04:08:12;;;;;;;17.58;13.27;;;16.80;96.80;;;;;;5038419;28;20053;-65
2021/09/09 04:10:38;;;;;;;17.95;12.60;;;16.80;96.80;;;;;;5030872;28;20129;-65
2021/09/09 04:13:03;;;;;;;18.73;13.35;;;16.80;96.80;;;;;;5023207;28;20029;-65
2021/09/09 04:15:29;;;;;;;16.25;12.52;;;16.70;96.70;;;;;;5039951;28;20497;-65
2021/09/09 04:17:54;;;;;;;17.58;13.40;;;16.70;96.70;;;;;;5039478;28;20021;-64
2021/09/09 04:20:20;;;;;;;18.50;12.60;;;16.70;96.80;;;;;;5031489;28;20037;-65
2021/09/09 04:22:45;;;;;;;19.92;14.27;;;16.70;96.80;;;;;;5038122;28;20032;-65
2021/09/09 04:25:11;;;;;;;19.98;13.05;;;16.70;96.80;;;;;;5032724;28;20025;-65
2021/09/09 04:27:37;;;;;;;20.45;13.93;;;16.70;96.80;;;;;;5031049;28;20049;-65
2021/09/09 04:30:04;;;;;;;17.52;12.82;;;16.60;96.90;;;;;;5030897;28;20029;-65
2021/09/09 04:32:29;;;;;;;19.40;14.20;;;16.60;96.90;;;;;;5034972;28;20029;-65
2021/09/09 04:34:55;;;;;;;19.73;14.07;;;16.60;96.90;;;;;;5042794;28;20025;-65
2021/09/09 04:37:20;;;;;;;16.98;13.02;;;16.50;96.90;;;;;;5016306;28;20118;-65
2021/09/09 04:39:46;;;;;;;20.23;13.18;;;16.50;96.90;;;;;;5029654;28;20022;-65
2021/09/09 04:42:12;;;;;;;19.98;13.38;;;16.50;96.80;;;;;;5014614;28;20033;-65
2021/09/09 04:44:37;;;;;;;19.42;13.60;;;16.50;96.90;;;;;;5031104;28;20033;-65
2021/09/09 04:47:03;;;;;;;18.33;13.05;;;16.50;97.00;;;;;;5029839;28;20494;-65
2021/09/09 04:49:29;;;;;;;18.75;12.95;;;16.50;96.90;;;;;;5030002;28;20401;-65
2021/09/09 04:51:54;;;;;;;17.25;12.63;;;16.40;96.90;;;;;;5030283;28;20490;-65
2021/09/09 04:54:20;;;;;;;18.75;13.57;;;16.50;97.00;;;;;;5011274;28;20038;-65
2021/09/09 04:56:46;;;;;;;18.35;13.32;;;16.50;97.00;;;;;;5010339;28;20026;-64
2021/09/09 04:59:11;;;;;;;17.25;12.93;;;16.50;96.90;;;;;;5048680;28;20057;-65
2021/09/09 05:01:37;;;;;;;17.25;12.13;;;16.50;97.00;;;;;;5039067;28;20100;-65
2021/09/09 05:04:02;;;;;;;17.95;12.35;;;16.50;97.00;;;;;;5031798;28;20025;-64
2021/09/09 05:06:28;;;;;;;16.98;12.52;;;16.50;97.00;;;;;;5033684;28;20025;-64
2021/09/09 05:08:53;;;;;;;17.90;12.25;;;16.50;97.00;;;;;;5032288;28;20033;-64
2021/09/09 05:11:19;;;;;;;18.70;13.40;;;16.60;97.00;;;;;;5030103;28;20398;-64
2021/09/09 05:13:45;;;;;;;17.55;12.60;;;16.60;97.00;;;;;;5031169;28;20036;-65
2021/09/09 05:16:10;;;;;;;17.80;12.05;;;16.60;97.00;;;;;;5032619;28;20441;-65
2021/09/09 05:18:36;;;;;;;15.40;12.18;;;16.60;97.00;;;;;;5034378;28;20120;-65
2021/09/09 05:21:02;;;;;;;19.15;12.38;;;16.60;96.90;;;;;;5034040;28;20104;-64
2021/09/09 05:23:27;;;;;;;16.08;12.32;;;16.60;96.90;;;;;;5034118;28;20115;-65
2021/09/09 05:25:53;;;;;;;18.83;12.30;;;16.60;96.80;;;;;;5034955;28;20029;-65
2021/09/09 05:28:19;;;;;;;14.93;12.32;;;16.70;96.60;;;;;;5033052;28;20117;-65
2021/09/09 05:30:45;;;;;;;16.33;11.35;;;16.60;96.60;;;;;;5034703;28;20025;-65
2021/09/09 05:33:10;;;;;;;17.00;12.40;;;16.70;96.60;;;;;;5033289;28;20029;-65
2021/09/09 05:35:36;;;;;;;16.33;11.85;;;16.70;96.50;;;;;;5046492;28;20378;-65
2021/09/09 05:38:01;;;;;;;18.67;12.50;;;16.70;96.50;;;;;;5040123;28;20056;-65
2021/09/09 05:40:27;;;;;;;21.08;13.40;;;16.60;96.40;;;;;;5033558;28;20452;-66
2021/09/09 05:42:53;;;;;;;18.17;11.98;;;16.70;96.30;;;;;;5033924;28;20030;-65
2021/09/09 05:45:19;;;;;;;19.13;12.02;;;16.70;96.30;;;;;;5033597;28;20030;-64
2021/09/09 05:47:44;;;;;;;17.65;11.82;;;16.70;96.30;;;;;;5040646;28;20033;-64
2021/09/09 05:50:10;;;;;;;15.68;11.25;;;16.70;96.20;;;;;;5036717;28;20378;-64
2021/09/09 05:52:36;;;;;;;21.25;12.07;;;16.80;96.20;;;;;;5037944;28;20024;-64
2021/09/09 05:55:02;;;;;;;16.63;12.88;;;16.80;96.10;;;;;;5038063;28;20048;-64
2021/09/09 05:57:27;;;;;;;19.00;11.93;;;16.80;96.00;;;;;;5038162;28;20035;-64
2021/09/09 05:59:53;;;;;;;15.65;10.63;;;16.80;96.10;;;;;;5040040;28;20028;-64
2021/09/09 06:02:19;;;;;;;18.30;11.25;;;16.80;96.10;;;;;;5032855;28;20029;-64
2021/09/09 06:04:47;;;;;;;16.40;10.65;;;16.90;96.10;;;;;;5039035;28;20090;-64
2021/09/09 06:07:13;;;;;;;15.55;11.25;;;16.90;96.20;;;;;;5050002;28;20060;-65
2021/09/09 06:09:40;;;;;;;21.75;12.60;;;17.00;96.10;;;;;;5043165;28;20434;-65
2021/09/09 06:12:06;;;;;;;20.63;12.75;;;17.00;96.70;;;;;;5033033;28;20118;-65
2021/09/09 06:14:31;;;;;;;16.20;11.27;;;17.00;96.80;;;;;;5032351;28;20440;-66
2021/09/09 06:16:57;;;;;;;15.45;11.70;;;17.10;96.70;;;;;;5032785;28;20022;-65
2021/09/09 06:19:22;;;;;;;18.55;12.35;;;17.10;96.60;;;;;;5042635;28;20509;-67
2021/09/09 06:21:48;;;;;;;13.35;10.82;;;17.20;96.70;;;;;;5032418;28;20022;-65
2021/09/09 06:24:13;;;;;;;19.85;12.30;;;17.20;96.20;;;;;;5043344;28;20120;-64
2021/09/09 06:26:39;;;;;;;15.55;11.50;;;17.20;95.90;;;;;;5033729;28;20049;-65
2021/09/09 06:29:04;;;;;;;16.00;11.38;;;17.30;95.90;;;;;;5036040;28;20013;-65
2021/09/09 06:31:30;;;;;;;14.43;11.90;;;17.30;96.10;;;;;;5033832;28;20025;-67
2021/09/09 06:33:55;;;;;;;15.57;10.52;;;17.30;95.90;;;;;;5040729;28;20163;-66
2021/09/09 06:36:21;;;;;;;16.95;11.07;;;17.40;96.00;;;;;;5031445;28;20040;-65
2021/09/09 06:38:46;;;;;;;18.00;11.43;;;17.40;95.70;;;;;;5033062;28;20128;-64
2021/09/09 06:41:12;;;;;;;16.88;11.10;;;17.40;95.50;;;;;;5042352;28;20025;-66
2021/09/09 06:43:37;;;;;;;16.38;10.80;;;17.40;95.50;;;;;;5043862;28;20041;-67
2021/09/09 06:46:03;;;;;;;17.00;11.00;;;17.50;95.20;;;;;;5045244;28;20029;-67
2021/09/09 06:48:29;;;;;;;16.38;10.85;;;17.50;95.00;;;;;;5033158;28;20040;-67
2021/09/09 06:50:56;;;;;;;13.65;10.77;;;17.50;95.30;;;;;;5028152;28;20022;-67
2021/09/09 06:53:21;;;;;;;13.88;10.18;;;17.60;94.90;;;;;;5042596;28;20033;-67
2021/09/09 06:55:47;;;;;;;17.13;11.07;;;17.60;94.80;;;;;;5025307;28;20517;-67
2021/09/09 06:58:12;;;;;;;13.98;9.25;;;17.70;95.10;;;;;;5033987;28;20031;-67
2021/09/09 07:00:38;;;;;;;12.98;9.32;;;17.70;94.70;;;;;;5031153;28;20033;-67
2021/09/09 07:03:03;;;;;;;13.57;10.02;;;17.80;94.60;;;;;;5035826;28;20017;-67
2021/09/09 07:05:29;;;;;;;13.95;9.45;;;17.90;94.50;;;;;;5035072;28;20032;-67
2021/09/09 07:07:55;;;;;;;12.63;8.82;;;17.90;94.40;;;;;;5036933;28;20043;-67
2021/09/09 07:10:21;;;;;;;11.45;8.30;;;17.90;94.10;;;;;;5038951;28;20032;-67
2021/09/09 07:12:46;;;;;;;11.23;7.80;;;18.00;93.90;;;;;;5043243;28;20473;-67
2021/09/09 07:15:11;;;;;;;10.52;8.30;;;18.10;93.80;;;;;;5026784;28;20104;-67
2021/09/09 07:17:37;;;;;;;10.27;7.40;;;18.10;94.00;;;;;;5036833;28;20037;-67
2021/09/09 07:20:04;;;;;;;11.80;7.53;;;18.20;93.60;;;;;;5030945;28;20217;-67
2021/09/09 07:22:29;;;;;;;15.10;7.68;;;18.20;93.40;;;;;;5029805;28;20094;-68
2021/09/09 07:24:55;;;;;;;10.48;7.03;;;18.30;93.20;;;;;;5032136;28;20029;-68
2021/09/09 07:27:21;;;;;;;12.70;7.78;;;18.30;93.20;;;;;;5039237;28;20034;-67
2021/09/09 07:29:46;;;;;;;11.50;7.55;;;18.40;93.20;;;;;;5037574;28;20485;-68
2021/09/09 07:32:12;;;;;;;12.02;7.38;;;18.40;92.90;;;;;;5053364;28;20072;-67
2021/09/09 07:34:38;;;;;;;10.98;7.32;;;18.50;92.90;;;;;;5038437;28;20493;-68
2021/09/09 07:37:03;;;;;;;12.20;7.60;;;18.60;92.90;;;;;;5043841;28;20033;-69
2021/09/09 07:39:29;;;;;;;10.45;6.90;;;18.60;92.80;;;;;;5030272;28;20025;-67
2021/09/09 07:41:54;;;;;;;10.30;7.63;;;18.70;92.70;;;;;;5038739;28;20030;-67
2021/09/09 07:44:20;;;;;;;10.20;6.90;;;18.80;92.50;;;;;;5028778;28;20025;-66
2021/09/09 07:46:45;;;;;;;10.52;7.03;;;18.90;92.80;;;;;;5031867;28;20494;-67
2021/09/09 07:49:15;;;;;;;11.02;7.20;;;19.00;92.70;;;;;;5033724;28;20037;-68
2021/09/09 07:51:41;;;;;;;10.35;6.50;;;19.00;92.80;;;;;;5046326;28;20474;-67
2021/09/09 07:54:06;;;;;;;11.77;6.65;;;19.10;92.30;;;;;;5032609;28;20040;-67
2021/09/09 07:56:32;;;;;;;10.18;6.57;;;19.20;92.00;;;;;;5024701;28;20045;-68
2021/09/09 07:58:57;;;;;;;10.88;7.22;;;19.20;92.20;;;;;;5024044;28;20374;-67
2021/09/09 08:01:23;;;;;;;11.50;6.88;;;19.30;92.00;;;;;;5031982;28;20416;-67
2021/09/09 08:03:48;;;;;;;11.93;6.85;;;19.30;91.50;;;;;;5037948;28;20033;-68
2021/09/09 08:06:14;;;;;;;12.93;6.85;;;19.40;91.70;;;;;;5031016;28;20064;-68
2021/09/09 08:08:41;;;;;;;11.38;6.38;;;19.50;91.70;;;;;;5031156;28;20033;-67
2021/09/09 08:11:07;;;;;;;10.60;6.72;;;19.60;91.50;;;;;;5031832;28;20107;-67
2021/09/09 08:13:32;;;;;;;9.18;6.60;;;19.60;91.40;;;;;;5038597;28;20115;-67
2021/09/09 08:15:58;;;;;;;10.95;6.07;;;19.70;91.30;;;;;;5051617;28;20400;-68
2021/09/09 08:18:24;;;;;;;9.93;6.22;;;19.80;90.80;;;;;;5037557;28;20053;-68
2021/09/09 08:20:51;;;;;;;12.48;6.00;;;19.80;90.60;;;;;;5035639;28;20044;-67
2021/09/09 08:23:16;;;;;;;13.05;6.50;;;19.90;90.20;;;;;;5030767;28;20117;-68
2021/09/09 08:25:42;;;;;;;9.18;6.57;;;20.00;90.00;;;;;;5031679;28;20455;-68
2021/09/09 08:28:07;;;;;;;9.00;6.35;;;20.00;90.00;;;;;;5030679;28;20033;-68
2021/09/09 08:30:33;;;;;;;9.18;6.55;;;20.10;90.10;;;;;;5039991;28;20083;-68
2021/09/09 08:32:58;;;;;;;11.20;7.00;;;20.10;90.30;;;;;;5045817;28;20501;-67
2021/09/09 08:35:24;;;;;;;10.02;6.07;;;20.20;90.40;;;;;;5031201;28;20136;-68
2021/09/09 08:37:50;;;;;;;8.93;5.85;;;20.30;89.60;;;;;;5030661;28;20694;-68
2021/09/09 08:40:15;;;;;;;7.47;5.20;;;20.30;89.60;;;;;;5035481;28;20026;-68
2021/09/09 08:42:43;;;;;;;10.75;6.32;;;20.40;88.90;;;;;;5035617;28;20367;-67
2021/09/09 08:45:10;;;;;;;9.35;5.65;;;20.40;88.30;;;;;;5055400;28;20032;-67
2021/09/09 08:47:41;;;;;;;10.07;6.25;;;20.50;89.10;;;;;;5039488;28;20033;-68
2021/09/09 08:50:07;;;;;;;9.50;6.05;;;20.50;88.20;;;;;;5037959;28;20029;-68
2021/09/09 08:52:32;;;;;;;8.48;5.00;;;20.60;88.90;;;;;;5034748;28;20044;-68
2021/09/09 08:54:58;;;;;;;6.75;5.03;;;20.70;87.70;;;;;;5054761;28;20037;-68
2021/09/09 08:57:23;;;;;;;7.80;5.30;;;20.70;86.80;;;;;;5055039;28;20504;-68
2021/09/09 08:59:49;;;;;;;10.00;6.18;;;20.80;86.30;;;;;;5035072;28;20021;-68
2021/09/09 09:02:15;;;;;;;7.63;4.93;;;20.90;85.60;;;;;;5034946;28;20071;-68
2021/09/09 09:04:41;;;;;;;8.18;5.57;;;20.90;85.50;;;;;;5034327;28;20433;-68
2021/09/09 09:07:08;;;;;;;9.60;6.30;;;21.00;85.60;;;;;;5034919;28;20065;-68
2021/09/09 09:09:36;;;;;;;7.65;5.28;;;21.00;85.30;;;;;;5050448;28;20033;-68
2021/09/09 09:12:07;;;;;;;10.20;6.03;;;21.10;85.40;;;;;;5055210;28;20013;-68
2021/09/09 09:14:32;;;;;;;8.73;5.82;;;21.20;84.70;;;;;;5052187;28;20033;-68
2021/09/09 09:17:01;;;;;;;7.60;5.50;;;21.20;84.00;;;;;;5037497;28;20029;-68
2021/09/09 09:19:31;;;;;;;8.77;6.18;;;21.30;83.70;;;;;;5045763;28;20033;-68
2021/09/09 09:22:02;;;;;;;10.70;6.97;;;21.30;83.30;;;;;;5054889;28;20035;-68
2021/09/09 09:24:34;;;;;;;9.30;6.63;;;21.40;83.90;;;;;;5052076;28;20033;-68
2021/09/09 09:27:07;;;;;;;12.43;7.40;;;21.50;83.50;;;;;;5054764;28;20123;-68
2021/09/09 09:29:33;;;;;;;8.45;5.95;;;21.60;83.50;;;;;;5049436;28;20025;-68
2021/09/09 09:32:09;;;;;;;8.70;6.30;;;21.60;82.50;;;;;;5034734;28;20033;-68
2021/09/09 09:34:35;;;;;;;8.43;5.15;;;21.70;83.30;;;;;;5033945;28;20029;-68
2021/09/09 09:37:01;;;;;;;10.40;6.55;;;21.70;82.20;;;;;;5047183;28;20037;-68
2021/09/09 09:39:26;;;;;;;9.35;6.40;;;21.80;82.00;;;;;;5036753;28;20121;-68
2021/09/09 09:41:56;;;;;;;10.45;6.35;;;21.80;82.40;;;;;;5034388;28;20477;-68
2021/09/09 09:44:33;;;;;;;8.38;6.25;;;21.90;81.40;;;;;;5031508;28;20060;-68
2021/09/09 09:47:13;;;;;;;10.07;5.65;;;21.90;81.10;;;;;;5034460;28;20080;-68
2021/09/09 09:49:43;;;;;;;8.27;5.90;;;22.00;80.90;;;;;;5036574;28;20587;-68
2021/09/09 09:52:17;;;;;;;8.95;6.05;;;22.10;80.80;;;;;;5034536;28;20044;-68
2021/09/09 09:54:59;;;;;;;7.93;5.68;;;22.10;80.30;;;;;;5033034;28;20129;-68
2021/09/09 09:57:27;;;;;;;9.85;6.32;;;22.20;80.10;;;;;;5033699;28;20037;-68
2021/09/09 09:59:53;;;;;;;8.32;4.93;;;22.30;80.70;;;;;;5043730;28;20030;-68
2021/09/09 10:02:20;;;;;;;8.90;5.75;;;22.40;78.20;;;;;;5033951;28;20053;-68
2021/09/09 10:04:48;;;;;;;9.18;6.10;;;22.40;78.90;;;;;;5031806;28;20389;-68
2021/09/09 10:07:14;;;;;;;8.95;5.93;;;22.50;78.30;;;;;;5033945;28;20041;-68
2021/09/09 10:09:41;;;;;;;9.25;6.03;;;22.60;77.50;;;;;;5035108;28;20021;-68
2021/09/09 10:12:09;;;;;;;8.85;6.13;;;22.70;77.70;;;;;;5042272;28;20068;-67
2021/09/09 10:14:39;;;;;;;9.70;5.47;;;22.70;77.30;;;;;;5016754;28;20030;-66
2021/09/09 10:17:06;;;;;;;7.35;5.35;;;22.80;76.60;;;;;;5013001;28;20026;-67
2021/09/09 10:19:33;;;;;;;7.32;5.18;;;22.90;76.50;;;;;;5046313;28;20079;-67
2021/09/09 10:22:13;;;;;;;9.60;6.15;;;23.00;76.40;;;;;;5053877;28;20060;-67
2021/09/09 10:24:50;;;;;;;8.85;5.32;;;23.00;76.10;;;;;;5033773;28;20064;-67
2021/09/09 10:27:24;;;;;;;8.90;5.97;;;23.20;76.00;;;;;;5053456;28;20043;-67
2021/09/09 10:29:54;;;;;;;8.95;5.05;;;23.20;75.60;;;;;;5050368;28;20052;-67
2021/09/09 10:32:28;;;;;;;9.95;6.07;;;23.30;75.20;;;;;;5047217;28;20057;-67
2021/09/09 10:35:16;;;;;;;8.27;4.60;;;23.40;75.20;;;;;;5033303;28;20034;-67
2021/09/09 10:37:50;;;;;;;9.70;6.60;;;23.40;74.70;;;;;;5031958;28;20037;-67
2021/09/09 10:40:35;;;;;;;8.67;5.77;;;23.50;75.00;;;;;;5033221;28;20033;-67
2021/09/09 10:43:12;;;;;;;8.80;5.60;;;23.60;75.20;;;;;;5032750;28;20075;-67
2021/09/09 10:45:43;;;;;;;8.63;5.88;;;23.70;74.50;;;;;;5033191;28;20033;-67
2021/09/09 10:48:23;;;;;;;7.25;4.63;;;23.70;74.20;;;;;;5031480;28;20037;-67
2021/09/09 10:51:10;;;;;;;8.07;5.65;;;23.80;73.10;;;;;;5032920;28;20026;-67
2021/09/09 10:53:41;;;;;;;8.52;6.00;;;23.90;73.70;;;;;;5038168;28;20086;-68
2021/09/09 10:56:19;;;;;;;7.90;5.40;;;23.90;72.40;;;;;;5051534;28;20073;-68
2021/09/09 10:59:02;;;;;;;7.82;5.10;;;24.00;72.10;;;;;;5050798;28;20020;-69
2021/09/09 11:01:28;;;;;;;6.97;5.72;;;24.00;71.10;;;;;;5052386;28;20025;-68
2021/09/09 11:03:53;;;;;;;8.45;5.45;;;24.10;71.90;;;;;;5048973;28;20059;-68
2021/09/09 11:06:21;;;;;;;7.88;4.85;;;24.10;71.40;;;;;;5032706;28;20030;-68
2021/09/09 11:08:55;;;;;;;6.97;4.97;;;24.20;70.80;;;;;;5031851;28;20035;-68
2021/09/09 11:11:22;;;;;;;6.68;4.93;;;24.20;70.90;;;;;;5032560;28;20367;-69
2021/09/09 11:14:02;;;;;;;9.10;5.13;;;24.30;71.10;;;;;;5040766;28;20086;-68
2021/09/09 11:16:33;;;;;;;9.57;5.35;;;24.30;70.60;;;;;;5029705;28;20029;-67
2021/09/09 11:19:00;;;;;;;10.13;5.43;;;24.40;69.50;;;;;;5029816;28;20120;-68
2021/09/09 11:21:32;;;;;;;6.57;4.78;;;24.40;69.40;;;;;;5033803;28;20043;-67
2021/09/09 11:24:03;;;;;;;6.57;5.18;;;24.40;69.00;;;;;;5029476;28;20032;-67
2021/09/09 11:26:29;;;;;;;10.27;5.38;;;24.50;69.10;;;;;;5033647;28;20025;-68
2021/09/09 11:28:56;;;;;;;8.30;5.25;;;24.60;68.80;;;;;;5032464;28;20025;-67
2021/09/09 11:31:24;;;;;;;7.22;4.57;;;24.60;68.60;;;;;;5033035;28;20017;-68
2021/09/09 11:33:53;;;;;;;7.82;5.70;;;24.70;68.60;;;;;;5033983;28;20061;-67
2021/09/09 11:36:21;;;;;;;8.73;4.93;;;24.70;68.80;;;;;;5034836;28;20032;-67
2021/09/09 11:38:46;;;;;;;7.63;5.30;;;24.70;68.30;;;;;;5036867;28;20029;-67
2021/09/09 11:41:18;;;;;;;9.50;6.07;;;24.80;67.90;;;;;;5032495;28;20018;-68
2021/09/09 11:43:53;;;;;;;8.38;5.15;;;24.90;67.70;;;;;;5031552;28;20021;-67
2021/09/09 11:46:50;;;;;;;9.43;5.40;;;24.90;67.20;;;;;;5032266;28;20366;-67
2021/09/09 11:49:18;;;;;;;7.10;5.43;;;25.00;67.80;;;;;;5031368;28;20132;-67
2021/09/09 11:51:49;;;;;;;8.27;4.60;;;25.00;67.50;;;;;;5032314;28;20041;-67
2021/09/09 11:54:26;;;;;;;7.45;6.50;;;25.10;67.40;;;;;;5031002;28;20057;-67
2021/09/09 11:57:03;;;;;;;6.38;5.10;;;25.10;66.70;;;;;;5032244;28;20022;-67
2021/09/09 11:59:28;;;;;;;8.23;5.03;;;25.20;67.20;;;;;;5041764;28;20042;-68
2021/09/09 12:02:05;;;;;;;9.57;5.63;;;25.30;67.00;;;;;;5032100;28;20401;-67
2021/09/09 12:04:33;;;;;;;8.68;5.68;;;25.30;66.40;;;;;;5047228;28;20032;-67
2021/09/09 12:06:59;;;;;;;7.25;5.03;;;25.30;66.50;;;;;;5050353;28;20029;-67
2021/09/09 12:09:25;;;;;;;6.78;5.32;;;25.40;66.20;;;;;;5049828;28;20033;-67
2021/09/09 12:12:06;;;;;;;9.93;5.38;;;25.40;66.00;;;;;;5051622;28;20021;-68
2021/09/09 12:14:33;;;;;;;10.30;5.53;;;25.50;66.30;;;;;;5032706;28;20044;-67
2021/09/09 12:17:10;;;;;;;8.32;5.40;;;25.50;66.30;;;;;;5031881;28;20057;-67
2021/09/09 12:19:58;;;;;;;6.72;5.25;;;25.50;66.60;;;;;;5045158;28;20116;-68
2021/09/09 12:22:55;;;;;;;7.68;5.07;;;25.60;66.80;;;;;;5048675;28;20025;-67
2021/09/09 12:25:26;;;;;;;8.43;5.00;;;25.60;66.20;;;;;;5032232;28;20041;-67
2021/09/09 12:28:14;;;;;;;7.88;5.95;;;25.70;66.30;;;;;;5030914;28;20448;-67
2021/09/09 12:30:53;;;;;;;8.75;6.22;;;25.70;66.90;;;;;;5039285;28;20112;-68
2021/09/09 12:33:35;;;;;;;8.02;5.45;;;25.80;66.90;;;;;;5037415;28;20035;-67